Time;durP1;ratioP1;P1;durP2;ratioP2;P2;SDS_P1;SDS_P2;PMS_P1;PMS_P2;Temp;Humidity;BMP_temperature;BMP_pressure;BME280_temperature;BME280_humidity;BME280_pressure;Samples;Min_cycle;Max_cycle;Signal;HPM_P1;HPM_P2
2022/10/03 00:01:42;;;;;;;9.40;1.27;;;7.70;99.90;;;;;;5041408;28;20045;-70
2022/10/03 00:04:27;;;;;;;13.15;1.35;;;7.70;99.90;;;;;;5055453;28;20041;-70
2022/10/03 00:07:27;;;;;;;9.52;1.55;;;7.70;99.90;;;;;;5053292;28;20060;-70
2022/10/03 00:10:00;;;;;;;12.82;1.48;;;7.80;99.90;;;;;;5068569;28;20094;-70
2022/10/03 00:12:57;;;;;;;14.73;2.10;;;7.90;99.90;;;;;;5062591;28;20072;-70
2022/10/03 00:15:29;;;;;;;12.63;2.17;;;8.00;99.90;;;;;;5055301;28;20374;-70
2022/10/03 00:18:04;;;;;;;9.52;2.28;;;8.20;99.90;;;;;;5055006;28;20127;-70
2022/10/03 00:20:48;;;;;;;12.10;1.92;;;8.30;99.90;;;;;;5046034;28;20647;-70
2022/10/03 00:23:19;;;;;;;10.18;2.00;;;8.40;99.90;;;;;;5067424;28;20481;-71
2022/10/03 00:26:46;;;;;;;14.55;1.95;;;8.50;99.90;;;;;;5070860;28;20114;-71
2022/10/03 00:29:24;;;;;;;10.05;1.60;;;8.60;99.90;;;;;;5081933;28;20316;-70
2022/10/03 00:32:04;;;;;;;12.45;1.98;;;8.70;99.90;;;;;;5061188;28;20177;-70
2022/10/03 00:34:30;;;;;;;5.40;1.58;;;8.70;99.90;;;;;;5066602;28;20048;-71
2022/10/03 00:37:24;;;;;;;11.83;1.73;;;8.70;99.90;;;;;;5079744;28;20122;-70
2022/10/03 00:40:28;;;;;;;11.40;1.98;;;8.60;99.90;;;;;;5044427;28;20048;-70
2022/10/03 00:43:13;;;;;;;9.70;1.63;;;8.60;99.90;;;;;;5078190;28;20079;-70
2022/10/03 00:45:58;;;;;;;11.70;1.75;;;8.50;99.90;;;;;;5068194;28;20472;-70
2022/10/03 00:49:03;;;;;;;11.07;1.63;;;8.40;99.90;;;;;;5061650;28;20041;-70
2022/10/03 00:51:56;;;;;;;11.60;1.40;;;8.30;99.90;;;;;;5067382;28;20036;-70
2022/10/03 00:54:43;;;;;;;11.73;2.65;;;8.30;99.90;;;;;;5090968;28;20036;-70
2022/10/03 00:58:01;;;;;;;8.10;1.50;;;8.20;99.90;;;;;;5054633;28;20481;-71
2022/10/03 01:00:32;;;;;;;8.80;1.50;;;8.20;99.90;;;;;;5008921;28;20077;-70
2022/10/03 01:03:19;;;;;;;6.68;1.45;;;8.10;99.90;;;;;;4995489;28;20138;-70
2022/10/03 01:05:54;;;;;;;10.32;1.85;;;8.00;99.90;;;;;;5037086;28;20596;-70
2022/10/03 01:08:23;;;;;;;10.57;2.10;;;8.00;99.90;;;;;;5074991;28;20558;-70
2022/10/03 01:11:01;;;;;;;12.05;1.40;;;8.00;99.90;;;;;;5072945;28;20135;-70
2022/10/03 01:13:48;;;;;;;8.15;1.20;;;8.00;99.90;;;;;;5056852;28;20496;-70
2022/10/03 01:16:41;;;;;;;9.00;2.10;;;8.00;99.90;;;;;;5066265;28;20040;-70
2022/10/03 01:19:31;;;;;;;11.02;1.33;;;7.90;99.90;;;;;;5067808;28;20493;-70
2022/10/03 01:21:57;;;;;;;7.35;1.42;;;7.90;99.90;;;;;;5057645;28;20045;-70
2022/10/03 01:24:55;;;;;;;7.00;1.43;;;7.90;99.90;;;;;;5054406;28;20178;-70
2022/10/03 01:27:28;;;;;;;7.00;1.58;;;7.90;99.90;;;;;;5067087;28;20479;-70
2022/10/03 01:30:21;;;;;;;9.00;1.17;;;7.80;99.90;;;;;;5071849;28;20067;-70
2022/10/03 01:33:13;;;;;;;9.63;1.42;;;7.80;99.90;;;;;;5084102;28;20118;-70
2022/10/03 01:35:59;;;;;;;6.35;1.02;;;7.80;99.90;;;;;;5056313;28;20078;-70
2022/10/03 01:38:52;;;;;;;8.68;1.25;;;7.80;99.90;;;;;;5049064;28;20040;-70
2022/10/03 01:41:27;;;;;;;10.27;1.30;;;7.70;99.90;;;;;;5056334;28;20044;-70
2022/10/03 01:44:12;;;;;;;;;;;7.70;99.90;;;;;;5071632;28;20036;-70
2022/10/03 01:46:46;;;;;;;8.30;1.40;;;7.70;99.90;;;;;;5048328;28;19924;-70
2022/10/03 01:49:20;;;;;;;8.15;1.27;;;7.60;99.90;;;;;;5067388;28;20040;-70
2022/10/03 01:52:08;;;;;;;10.48;1.60;;;7.70;99.90;;;;;;5059954;28;20392;-70
2022/10/03 01:54:43;;;;;;;10.13;1.98;;;7.70;99.90;;;;;;5046438;28;20133;-70
2022/10/03 01:57:36;;;;;;;9.25;1.30;;;7.70;99.90;;;;;;5062555;28;20542;-70
2022/10/03 02:00:12;;;;;;;5.95;1.52;;;7.70;99.90;;;;;;5068254;28;20420;-70
2022/10/03 02:02:59;;;;;;;10.25;1.70;;;7.60;99.90;;;;;;5054865;28;20058;-70
2022/10/03 02:05:34;;;;;;;7.60;1.33;;;7.60;99.90;;;;;;5074216;28;20051;-70
2022/10/03 02:08:18;;;;;;;8.77;2.10;;;7.70;99.90;;;;;;5077266;28;20047;-70
2022/10/03 02:10:52;;;;;;;9.60;1.67;;;7.60;99.90;;;;;;5046228;28;20127;-70
2022/10/03 02:13:30;;;;;;;10.13;1.80;;;7.60;99.90;;;;;;5054888;28;20521;-70
2022/10/03 02:16:06;;;;;;;8.68;1.42;;;7.60;99.90;;;;;;5053160;28;20072;-70
2022/10/03 02:18:38;;;;;;;8.90;1.48;;;7.60;99.90;;;;;;5067923;28;20431;-70
2022/10/03 02:21:04;;;;;;;8.18;1.17;;;7.60;99.90;;;;;;5085045;28;20047;-70
2022/10/03 02:23:32;;;;;;;9.60;1.10;;;7.60;99.90;;;;;;5071287;28;20048;-70
2022/10/03 02:26:22;;;;;;;12.63;1.90;;;7.50;99.90;;;;;;5082031;28;20043;-70
2022/10/03 02:29:24;;;;;;;7.32;1.00;;;7.50;99.90;;;;;;5060679;28;20059;-70
2022/10/03 02:31:58;;;;;;;10.25;1.60;;;7.40;99.90;;;;;;5071871;28;20064;-70
2022/10/03 02:34:35;;;;;;;6.95;1.20;;;7.40;99.90;;;;;;5069938;28;20044;-70
2022/10/03 02:37:31;;;;;;;9.38;1.98;;;7.40;99.90;;;;;;5072663;28;20123;-70
2022/10/03 02:40:19;;;;;;;11.20;1.10;;;7.40;99.90;;;;;;5029080;28;20084;-70
2022/10/03 02:43:07;;;;;;;10.65;1.33;;;7.40;99.90;;;;;;5052515;28;20101;-70
2022/10/03 02:46:08;;;;;;;13.27;2.28;;;7.40;99.90;;;;;;5054916;28;20552;-70
2022/10/03 02:48:53;;;;;;;8.52;1.40;;;7.30;99.90;;;;;;5068896;28;20135;-70
2022/10/03 02:51:44;;;;;;;9.80;1.55;;;7.30;99.90;;;;;;5046766;28;20100;-70
2022/10/03 02:54:23;;;;;;;10.05;1.23;;;7.40;99.90;;;;;;5025145;28;20091;-70
2022/10/03 02:57:24;;;;;;;10.18;1.40;;;7.40;99.90;;;;;;5078822;28;20433;-70
2022/10/03 03:00:08;;;;;;;6.53;1.20;;;7.40;99.90;;;;;;5053452;28;20044;-70
2022/10/03 03:02:53;;;;;;;8.45;1.10;;;7.40;99.90;;;;;;5069153;28;20055;-71
2022/10/03 03:05:38;;;;;;;9.18;1.10;;;7.30;99.90;;;;;;5058355;28;20072;-70
2022/10/03 03:08:09;;;;;;;8.57;1.10;;;7.30;99.90;;;;;;5063494;28;20048;-70
2022/10/03 03:11:16;;;;;;;9.75;1.23;;;7.30;99.90;;;;;;5045045;28;20036;-70
2022/10/03 03:13:48;;;;;;;13.80;1.92;;;7.30;99.90;;;;;;4984584;28;20049;-70
2022/10/03 03:16:51;;;;;;;5.95;1.35;;;7.30;99.90;;;;;;5080482;28;20045;-70
2022/10/03 03:19:41;;;;;;;10.98;1.02;;;7.40;99.90;;;;;;5054489;28;20373;-70
2022/10/03 03:22:35;;;;;;;4.78;0.80;;;7.30;99.90;;;;;;5053263;28;20071;-70
2022/10/03 03:25:03;;;;;;;4.35;1.08;;;7.20;99.90;;;;;;5067981;28;20087;-70
2022/10/03 03:27:42;;;;;;;5.97;1.20;;;7.20;99.90;;;;;;5076651;28;20554;-70
2022/10/03 03:30:38;;;;;;;4.88;0.98;;;7.10;99.90;;;;;;5045894;28;20060;-70
2022/10/03 03:33:42;;;;;;;10.65;1.40;;;7.10;99.90;;;;;;5064352;28;20488;-70
2022/10/03 03:36:40;;;;;;;4.80;1.10;;;7.10;99.90;;;;;;5073758;28;20076;-70
2022/10/03 03:39:18;;;;;;;4.38;0.88;;;7.00;99.90;;;;;;5059366;28;20056;-70
2022/10/03 03:41:49;;;;;;;7.28;1.10;;;7.00;99.90;;;;;;5061657;28;20040;-70
2022/10/03 03:44:46;;;;;;;6.78;0.90;;;7.00;99.90;;;;;;5043866;28;20115;-70
2022/10/03 03:47:54;;;;;;;6.13;1.17;;;7.00;99.90;;;;;;5057214;28;20040;-70
2022/10/03 03:50:39;;;;;;;9.88;1.73;;;7.00;99.90;;;;;;5053590;28;20531;-70
2022/10/03 03:53:32;;;;;;;11.48;1.92;;;7.00;99.90;;;;;;5070160;28;20040;-70
2022/10/03 03:56:16;;;;;;;9.85;1.88;;;7.00;99.90;;;;;;5070639;28;20044;-70
2022/10/03 03:59:20;;;;;;;9.43;1.50;;;7.00;99.90;;;;;;5072697;28;20581;-70
2022/10/03 04:01:52;;;;;;;4.82;1.50;;;7.00;99.90;;;;;;5020768;28;20100;-70
2022/10/03 04:04:46;;;;;;;8.90;1.30;;;7.00;99.90;;;;;;5039264;28;20086;-70
2022/10/03 04:07:35;;;;;;;11.00;2.38;;;7.00;99.90;;;;;;5043078;28;20047;-70
2022/10/03 04:10:25;;;;;;;7.55;1.83;;;7.00;99.90;;;;;;5070499;28;20041;-70
2022/10/03 04:13:00;;;;;;;4.82;0.93;;;7.10;99.90;;;;;;5068523;28;20059;-70
2022/10/03 04:16:12;;;;;;;8.98;1.20;;;7.10;99.90;;;;;;5054224;28;20504;-70
2022/10/03 04:18:57;;;;;;;6.60;1.40;;;7.00;99.90;;;;;;5056165;28;20052;-70
2022/10/03 04:21:44;;;;;;;11.25;1.92;;;7.00;99.90;;;;;;5057485;28;20511;-70
2022/10/03 04:24:51;;;;;;;7.63;1.30;;;7.00;99.90;;;;;;5066479;28;20074;-70
2022/10/03 04:27:16;;;;;;;;;;;7.00;99.90;;;;;;5085383;28;20111;-70
2022/10/03 04:30:03;;;;;;;11.23;1.93;;;6.90;99.90;;;;;;5056388;28;20007;-70
2022/10/03 04:32:34;;;;;;;11.65;1.27;;;6.90;99.90;;;;;;5074802;28;20044;-70
2022/10/03 04:35:27;;;;;;;4.78;1.10;;;6.90;99.90;;;;;;5074694;28;20083;-70
2022/10/03 04:38:05;;;;;;;5.22;1.08;;;6.90;99.90;;;;;;5071811;28;20064;-70
2022/10/03 04:40:49;;;;;;;7.57;1.30;;;6.80;99.90;;;;;;5049015;28;20055;-70
2022/10/03 04:43:23;;;;;;;5.72;1.30;;;6.80;99.90;;;;;;5049979;28;20043;-70
2022/10/03 04:46:11;;;;;;;5.45;1.10;;;6.80;99.90;;;;;;5070841;28;20041;-70
2022/10/03 04:49:22;;;;;;;7.82;1.27;;;6.80;99.90;;;;;;5051590;28;20051;-70
2022/10/03 04:52:26;;;;;;;9.00;1.20;;;6.80;99.90;;;;;;5060657;28;20105;-70
2022/10/03 04:55:05;;;;;;;9.18;1.70;;;6.70;99.90;;;;;;5051420;28;20076;-70
2022/10/03 04:57:44;;;;;;;8.68;1.65;;;6.70;99.90;;;;;;5058346;28;20032;-70
2022/10/03 05:00:28;;;;;;;9.85;1.80;;;6.70;99.90;;;;;;5073939;28;20131;-70
2022/10/03 05:02:54;;;;;;;8.70;1.40;;;6.70;99.90;;;;;;5057278;28;20052;-70
2022/10/03 05:05:26;;;;;;;5.93;1.20;;;6.70;99.90;;;;;;5071034;28;20093;-70
2022/10/03 05:08:16;;;;;;;6.45;1.10;;;6.70;99.90;;;;;;5063626;28;20485;-70
2022/10/03 05:10:47;;;;;;;8.43;1.10;;;6.70;99.90;;;;;;5046660;28;20036;-70
2022/10/03 05:13:33;;;;;;;8.70;1.50;;;6.70;99.90;;;;;;5066164;28;20401;-70
2022/10/03 05:16:14;;;;;;;7.03;1.20;;;6.70;99.90;;;;;;5024554;28;20041;-70
2022/10/03 05:18:46;;;;;;;8.13;1.10;;;6.70;99.90;;;;;;5056415;28;20067;-70
2022/10/03 05:21:23;;;;;;;7.65;1.80;;;6.70;99.90;;;;;;5062890;28;20044;-70
2022/10/03 05:24:04;;;;;;;6.63;1.30;;;6.80;99.90;;;;;;5039194;28;20557;-70
2022/10/03 05:26:45;;;;;;;8.48;1.38;;;6.80;99.90;;;;;;5076294;28;20078;-70
2022/10/03 05:29:23;;;;;;;8.65;1.40;;;6.80;99.90;;;;;;5076388;28;20408;-70
2022/10/03 05:32:05;;;;;;;8.88;1.65;;;6.80;99.90;;;;;;5044387;28;20049;-70
2022/10/03 05:34:49;;;;;;;4.50;1.20;;;6.80;99.90;;;;;;5058738;28;20150;-70
2022/10/03 05:37:18;;;;;;;8.02;1.08;;;6.80;99.90;;;;;;5071008;28;20116;-70
2022/10/03 05:40:06;;;;;;;13.20;1.80;;;6.90;99.90;;;;;;5051199;28;20077;-70
2022/10/03 05:42:51;;;;;;;5.97;1.10;;;6.90;99.90;;;;;;5056417;28;20043;-70
2022/10/03 05:45:47;;;;;;;10.88;1.15;;;6.90;99.90;;;;;;5061375;28;20124;-70
2022/10/03 05:48:20;;;;;;;8.05;1.33;;;6.90;99.90;;;;;;5048469;28;20102;-70
2022/10/03 05:51:22;;;;;;;5.40;1.42;;;7.00;99.90;;;;;;5055689;28;20159;-70
2022/10/03 05:53:53;;;;;;;7.60;1.40;;;7.00;99.90;;;;;;5052632;28;20045;-70
2022/10/03 05:56:37;;;;;;;8.23;1.33;;;7.00;99.90;;;;;;5051619;28;20056;-70
2022/10/03 05:59:51;;;;;;;8.10;1.38;;;7.00;99.90;;;;;;5064977;28;20047;-70
2022/10/03 06:02:55;;;;;;;4.75;1.10;;;7.10;99.90;;;;;;5037205;28;20048;-70
2022/10/03 06:06:02;;;;;;;10.35;1.30;;;7.10;99.90;;;;;;5070062;28;20106;-70
2022/10/03 06:08:43;;;;;;;;;;;7.20;99.90;;;;;;5074758;28;20119;-70
2022/10/03 06:11:20;;;;;;;12.52;1.35;;;7.20;99.90;;;;;;5050707;28;19921;-70
2022/10/03 06:13:52;;;;;;;6.25;1.63;;;7.30;99.90;;;;;;5056132;28;20047;-70
2022/10/03 06:16:54;;;;;;;7.57;1.40;;;7.30;99.90;;;;;;5054530;28;20059;-71
2022/10/03 06:19:34;;;;;;;10.80;1.30;;;7.40;99.90;;;;;;5041275;28;20049;-70
2022/10/03 06:22:19;;;;;;;9.48;1.13;;;7.50;99.90;;;;;;5062576;28;20072;-70
2022/10/03 06:25:00;;;;;;;9.98;1.95;;;7.50;99.90;;;;;;5058463;28;20122;-70
2022/10/03 06:28:07;;;;;;;7.00;1.60;;;7.60;99.90;;;;;;5059350;28;20041;-70
2022/10/03 06:30:58;;;;;;;6.30;1.70;;;7.70;99.90;;;;;;5082010;28;20416;-70
2022/10/03 06:34:01;;;;;;;7.03;1.42;;;7.90;99.90;;;;;;5055364;28;20135;-71
2022/10/03 06:37:06;;;;;;;9.73;1.88;;;8.00;99.90;;;;;;5062952;28;20376;-71
2022/10/03 06:40:10;;;;;;;11.18;1.83;;;8.10;99.90;;;;;;5063568;28;20182;-71
2022/10/03 06:43:11;;;;;;;5.43;1.45;;;8.20;99.90;;;;;;5073551;28;20059;-71
2022/10/03 06:46:02;;;;;;;7.05;1.20;;;8.20;99.90;;;;;;5078933;28;20040;-71
2022/10/03 06:49:11;;;;;;;9.23;1.90;;;8.30;99.90;;;;;;5058994;28;20048;-72
2022/10/03 06:51:50;;;;;;;10.60;1.67;;;8.40;99.90;;;;;;5058532;28;20043;-72
2022/10/03 06:54:34;;;;;;;12.38;1.60;;;8.50;99.90;;;;;;5057324;28;20044;-71
2022/10/03 06:57:27;;;;;;;11.52;1.80;;;8.70;99.90;;;;;;5069512;28;20515;-71
2022/10/03 07:00:19;;;;;;;12.98;2.83;;;8.90;99.90;;;;;;5056543;28;20514;-72
2022/10/03 07:03:37;;;;;;;7.78;1.42;;;9.10;99.90;;;;;;5072331;28;20096;-72
2022/10/03 07:06:38;;;;;;;11.95;2.10;;;9.20;99.90;;;;;;5061450;28;20083;-72
2022/10/03 07:09:41;;;;;;;8.82;2.00;;;9.30;99.90;;;;;;5020009;28;20128;-72
2022/10/03 07:12:39;;;;;;;11.07;2.15;;;9.40;99.90;;;;;;5076351;28;20048;-72
2022/10/03 07:15:13;;;;;;;9.02;2.50;;;9.60;99.90;;;;;;5061862;28;20081;-72
2022/10/03 07:18:17;;;;;;;11.35;2.00;;;9.70;99.90;;;;;;5057230;28;20117;-72
2022/10/03 07:20:45;;;;;;;11.38;2.40;;;9.90;99.90;;;;;;5071741;28;20044;-72
2022/10/03 07:23:46;;;;;;;17.98;3.22;;;10.00;99.90;;;;;;5068009;28;20049;-72
2022/10/03 07:26:50;;;;;;;8.07;2.15;;;10.20;99.90;;;;;;5070400;28;20055;-72
2022/10/03 07:29:41;;;;;;;9.65;2.75;;;10.30;99.90;;;;;;5064169;28;20036;-72
2022/10/03 07:32:25;;;;;;;12.00;2.25;;;10.40;99.90;;;;;;5057145;28;20078;-72
2022/10/03 07:34:53;;;;;;;12.18;3.50;;;10.60;99.90;;;;;;5055312;28;20071;-72
2022/10/03 07:40:18;;;;;;;7.45;2.10;;;10.80;99.90;;;;;;5064060;28;20054;-71
2022/10/03 07:43:18;;;;;;;11.02;2.10;;;10.90;99.90;;;;;;5073184;28;20474;-72
2022/10/03 07:45:59;;;;;;;9.93;2.83;;;11.00;99.90;;;;;;5062295;28;20036;-72
2022/10/03 07:48:55;;;;;;;7.45;2.67;;;11.20;99.90;;;;;;5071885;28;20036;-72
2022/10/03 07:52:11;;;;;;;9.57;2.00;;;11.30;99.90;;;;;;5055911;28;20434;-71
2022/10/03 07:55:04;;;;;;;14.10;2.07;;;11.40;99.90;;;;;;5069217;28;20287;-72
2022/10/03 07:58:09;;;;;;;11.87;2.37;;;11.60;99.90;;;;;;5059776;28;20278;-71
2022/10/03 08:00:40;;;;;;;7.13;1.60;;;11.80;99.90;;;;;;5050024;28;20307;-71
2022/10/03 08:03:15;;;;;;;9.83;1.70;;;11.90;99.90;;;;;;5053098;28;20286;-72
2022/10/03 08:06:17;;;;;;;9.43;1.58;;;12.00;99.90;;;;;;5063798;28;20347;-72
2022/10/03 08:09:01;;;;;;;11.70;1.90;;;12.10;99.90;;;;;;5067017;28;20048;-72
2022/10/03 08:11:26;;;;;;;9.03;1.40;;;12.30;99.90;;;;;;5070175;28;20283;-71
2022/10/03 08:14:20;;;;;;;6.20;1.43;;;12.40;99.90;;;;;;5061746;28;20857;-72
2022/10/03 08:17:12;;;;;;;6.03;1.20;;;12.50;99.90;;;;;;5071579;28;20044;-72
2022/10/03 08:19:52;;;;;;;10.67;2.37;;;12.60;99.90;;;;;;5075471;28;20290;-71
2022/10/03 08:22:44;;;;;;;10.10;1.67;;;12.70;99.90;;;;;;5075152;28;20324;-72
2022/10/03 08:25:38;;;;;;;8.77;1.40;;;12.90;99.90;;;;;;5013824;28;20283;-72
2022/10/03 08:28:42;;;;;;;9.63;0.90;;;13.00;99.90;;;;;;5073749;28;20294;-72
2022/10/03 08:31:42;;;;;;;9.17;0.73;;;13.10;99.90;;;;;;5069927;28;20302;-71
2022/10/03 08:34:39;;;;;;;6.07;0.83;;;13.20;99.90;;;;;;5053688;28;20302;-71
2022/10/03 08:37:30;;;;;;;7.83;1.43;;;13.40;99.90;;;;;;5046500;28;20314;-72
2022/10/03 08:39:55;;;;;;;7.40;0.67;;;13.50;99.90;;;;;;5044671;28;20799;-71
2022/10/03 08:42:41;;;;;;;5.87;1.07;;;13.60;99.90;;;;;;5053884;28;20641;-71
2022/10/03 08:45:18;;;;;;;8.02;0.90;;;13.80;99.90;;;;;;5063145;28;20040;-72
2022/10/03 08:48:08;;;;;;;6.60;0.60;;;14.00;99.90;;;;;;5068074;28;20471;-71
2022/10/03 08:50:57;;;;;;;8.70;0.97;;;14.20;99.90;;;;;;5049020;28;20291;-71
2022/10/03 08:53:47;;;;;;;6.70;1.33;;;14.30;99.90;;;;;;5069823;28;20290;-72
2022/10/03 08:56:24;;;;;;;8.20;0.63;;;14.40;99.90;;;;;;5065247;28;20080;-72
2022/10/03 08:59:08;;;;;;;5.17;1.00;;;14.50;99.90;;;;;;5053028;28;20282;-72
2022/10/03 09:01:49;;;;;;;7.87;0.40;;;14.60;99.90;;;;;;5070452;28;20720;-72
2022/10/03 09:04:27;;;;;;;7.80;1.40;;;14.80;99.70;;;;;;5049083;28;20353;-71
2022/10/03 09:07:11;;;;;;;5.10;0.57;;;14.80;96.70;;;;;;5055366;28;20274;-72
2022/10/03 09:10:08;;;;;;;6.03;0.73;;;14.90;96.20;;;;;;5056289;28;20279;-72
2022/10/03 09:12:41;;;;;;;5.17;0.53;;;15.00;96.40;;;;;;5060717;28;20290;-72
2022/10/03 09:15:35;;;;;;;4.03;0.47;;;15.10;95.70;;;;;;5058700;28;20275;-72
2022/10/03 09:18:25;;;;;;;6.60;0.70;;;15.20;92.30;;;;;;5073993;28;20294;-72
2022/10/03 09:21:13;;;;;;;6.00;0.80;;;15.20;91.50;;;;;;5074548;28;20302;-73
2022/10/03 09:24:17;;;;;;;5.27;0.50;;;15.40;91.60;;;;;;5055204;28;20282;-72
2022/10/03 09:27:15;;;;;;;4.87;0.93;;;15.50;91.50;;;;;;5079496;28;20345;-72
2022/10/03 09:30:02;;;;;;;5.17;0.50;;;15.50;89.30;;;;;;5053260;28;20286;-73
2022/10/03 09:32:47;;;;;;;5.47;1.00;;;15.60;90.40;;;;;;5061900;28;20286;-71
2022/10/03 09:35:34;;;;;;;3.92;0.60;;;15.60;90.10;;;;;;5075683;28;20278;-72
2022/10/03 09:38:45;;;;;;;9.03;0.90;;;15.70;89.80;;;;;;5074005;28;20056;-72
2022/10/03 09:41:49;;;;;;;8.47;1.00;;;15.80;89.00;;;;;;5070364;28;20299;-72
2022/10/03 09:44:45;;;;;;;11.10;1.60;;;15.80;87.10;;;;;;5060469;28;20369;-72
2022/10/03 09:47:25;;;;;;;5.23;0.53;;;16.00;88.00;;;;;;5054625;28;20282;-72
2022/10/03 09:50:21;;;;;;;6.63;0.70;;;16.00;87.60;;;;;;5065442;28;20293;-71
2022/10/03 09:53:09;;;;;;;5.60;0.70;;;16.10;86.00;;;;;;5056860;28;20279;-72
2022/10/03 09:56:23;;;;;;;6.07;1.07;;;16.10;85.80;;;;;;5057793;28;20318;-72
2022/10/03 09:59:27;;;;;;;5.43;0.60;;;16.30;85.50;;;;;;5063917;28;20274;-72
2022/10/03 10:02:07;;;;;;;5.63;0.57;;;16.40;84.80;;;;;;5057439;28;20325;-71
2022/10/03 10:04:48;;;;;;;7.37;0.70;;;16.40;83.50;;;;;;5073604;28;20322;-71
2022/10/03 10:07:35;;;;;;;7.07;0.73;;;16.50;85.00;;;;;;5073664;28;20766;-71
2022/10/03 10:10:16;;;;;;;5.77;0.90;;;16.60;83.70;;;;;;5072936;28;20336;-71
2022/10/03 10:13:16;;;;;;;4.70;0.87;;;16.60;83.30;;;;;;5066268;28;20704;-71
2022/10/03 10:16:13;;;;;;;6.57;0.80;;;16.60;84.00;;;;;;5072304;28;20401;-71
2022/10/03 10:19:09;;;;;;;5.60;0.50;;;16.60;82.50;;;;;;5047252;28;20283;-71
2022/10/03 10:21:35;;;;;;;5.27;0.50;;;16.60;83.80;;;;;;5075602;28;20899;-71
2022/10/03 10:24:22;;;;;;;6.73;1.00;;;16.60;83.90;;;;;;5061944;28;20309;-71
2022/10/03 10:26:52;;;;;;;7.87;0.80;;;16.60;82.90;;;;;;5050481;28;20037;-71
2022/10/03 10:29:35;;;;;;;6.30;0.80;;;16.50;82.90;;;;;;5070240;28;20295;-71
2022/10/03 10:32:28;;;;;;;6.03;0.83;;;16.60;82.80;;;;;;5036812;28;20798;-71
2022/10/03 10:35:06;;;;;;;3.70;0.50;;;16.60;82.60;;;;;;5072028;28;20274;-71
2022/10/03 10:37:53;;;;;;;5.87;0.40;;;16.70;81.30;;;;;;5072732;28;20306;-71
2022/10/03 10:40:29;;;;;;;4.33;0.83;;;16.80;80.20;;;;;;5045401;28;20850;-71
2022/10/03 10:42:58;;;;;;;7.33;0.80;;;16.90;79.30;;;;;;5069599;28;20279;-71
2022/10/03 10:45:37;;;;;;;4.73;0.67;;;17.00;80.10;;;;;;5055217;28;20677;-71
2022/10/03 10:48:25;;;;;;;4.93;0.50;;;17.10;79.30;;;;;;5051042;28;20580;-71
2022/10/03 10:51:33;;;;;;;3.97;0.90;;;17.20;78.70;;;;;;5064794;28;20274;-71
2022/10/03 10:54:24;;;;;;;5.90;0.60;;;17.20;78.00;;;;;;5059225;28;20286;-71
2022/10/03 10:57:18;;;;;;;7.13;0.97;;;17.20;76.90;;;;;;5055196;28;20905;-71
2022/10/03 11:00:06;;;;;;;3.13;0.40;;;17.10;76.10;;;;;;5066444;28;20282;-71
2022/10/03 11:03:11;;;;;;;6.20;0.60;;;17.00;77.20;;;;;;5080974;28;20635;-71
2022/10/03 11:05:59;;;;;;;4.80;0.50;;;17.10;77.30;;;;;;5086764;28;20293;-71
2022/10/03 11:08:53;;;;;;;8.83;0.87;;;17.30;77.00;;;;;;5054911;28;20344;-71
2022/10/03 11:11:53;;;;;;;3.63;0.43;;;17.40;78.20;;;;;;5049353;28;20291;-71
2022/10/03 11:14:37;;;;;;;5.43;0.50;;;17.40;75.70;;;;;;5050217;28;20274;-71
2022/10/03 11:17:21;;;;;;;3.13;0.40;;;17.40;75.40;;;;;;5055327;28;20752;-71
2022/10/03 11:20:15;;;;;;;5.83;0.63;;;17.50;75.30;;;;;;5052099;28;20283;-71
2022/10/03 11:23:27;;;;;;;7.20;0.50;;;17.70;73.10;;;;;;5084541;28;20309;-71
2022/10/03 11:26:30;;;;;;;6.43;0.60;;;17.70;74.40;;;;;;5055743;28;20271;-71
2022/10/03 11:29:38;;;;;;;4.33;0.80;;;17.60;73.70;;;;;;5072091;28;20294;-71
2022/10/03 11:32:41;;;;;;;4.07;0.60;;;17.50;74.50;;;;;;5037987;28;20288;-71
2022/10/03 11:35:43;;;;;;;7.83;0.83;;;17.40;74.50;;;;;;5049719;28;20282;-71
2022/10/03 11:38:20;;;;;;;7.17;0.70;;;17.50;74.80;;;;;;5055028;28;20298;-71
2022/10/03 11:41:30;;;;;;;4.67;0.60;;;17.50;75.20;;;;;;5055121;28;20399;-71
2022/10/03 11:44:06;;;;;;;2.83;0.60;;;17.50;73.30;;;;;;5059939;28;20275;-72
2022/10/03 11:46:50;;;;;;;6.57;0.87;;;17.40;73.80;;;;;;5076026;28;20267;-72
2022/10/03 11:49:16;;;;;;;5.03;0.75;;;17.40;73.60;;;;;;5075918;28;20284;-72
2022/10/03 11:51:49;;;;;;;5.43;0.87;;;17.50;75.00;;;;;;5062158;28;20044;-72
2022/10/03 11:54:21;;;;;;;2.80;1.00;;;17.50;75.00;;;;;;5049525;28;20051;-72
2022/10/03 11:56:53;;;;;;;2.97;0.40;;;17.60;74.90;;;;;;5064736;28;20062;-72
2022/10/03 11:59:32;;;;;;;4.60;1.03;;;17.60;74.70;;;;;;5073241;28;20037;-71
2022/10/03 12:02:10;;;;;;;4.77;1.03;;;17.70;75.40;;;;;;5052678;28;20043;-72
2022/10/03 12:04:35;;;;;;;5.13;0.77;;;17.80;72.90;;;;;;5072726;28;20661;-72
2022/10/03 12:10:30;;;;;;;5.30;0.90;;;18.00;73.50;;;;;;5073574;28;20062;-72
2022/10/03 12:12:57;;;;;;;4.33;0.50;;;18.10;71.40;;;;;;5063703;28;20055;-72
2022/10/03 12:15:33;;;;;;;3.90;0.30;;;18.10;72.30;;;;;;5051139;28;20462;-72
2022/10/03 12:18:33;;;;;;;5.23;0.63;;;18.20;71.70;;;;;;5074379;28;20055;-73
2022/10/03 12:21:17;;;;;;;3.83;0.60;;;18.20;72.10;;;;;;5076079;28;20411;-72
2022/10/03 12:23:57;;;;;;;3.37;0.50;;;18.30;71.10;;;;;;5071475;28;20097;-71
2022/10/03 12:26:32;;;;;;;3.13;0.60;;;18.40;71.20;;;;;;5055705;28;20043;-71
2022/10/03 12:28:59;;;;;;;;;;;18.60;71.40;;;;;;5073935;28;20028;-73
2022/10/03 12:31:29;;;;;;;4.23;0.53;;;18.60;69.40;;;;;;5049997;28;19921;-73
2022/10/03 12:34:02;;;;;;;4.47;0.40;;;18.50;71.80;;;;;;5049577;28;20040;-73
2022/10/03 12:36:34;;;;;;;3.22;0.30;;;18.50;71.50;;;;;;5051781;28;20056;-72
2022/10/03 12:39:12;;;;;;;6.43;0.80;;;18.30;70.50;;;;;;5042277;28;20040;-72
2022/10/03 12:41:47;;;;;;;3.10;0.50;;;18.10;70.70;;;;;;5066977;28;20041;-72
2022/10/03 12:44:47;;;;;;;3.83;1.15;;;18.10;71.00;;;;;;5078833;28;20048;-72
2022/10/03 12:47:34;;;;;;;3.87;0.60;;;18.20;71.70;;;;;;5073883;28;20124;-72
2022/10/03 12:50:34;;;;;;;4.13;0.33;;;18.20;69.60;;;;;;5067763;28;20279;-72
2022/10/03 12:53:14;;;;;;;4.03;0.63;;;18.20;70.10;;;;;;5048881;28;20040;-72
2022/10/03 12:55:55;;;;;;;7.70;0.73;;;18.30;72.10;;;;;;5068137;28;20075;-72
2022/10/03 12:58:29;;;;;;;5.23;0.70;;;18.40;70.80;;;;;;5054161;28;20036;-72
2022/10/03 13:00:59;;;;;;;5.53;0.93;;;18.40;69.70;;;;;;5055174;28;20485;-70
2022/10/03 13:04:15;;;;;;;3.63;0.30;;;18.40;69.80;;;;;;5073506;28;20544;-70
2022/10/03 13:07:02;;;;;;;6.97;1.27;;;18.50;70.10;;;;;;5018529;28;20052;-70
2022/10/03 13:09:59;;;;;;;3.93;0.33;;;18.50;69.80;;;;;;5041948;28;20416;-70
2022/10/03 13:12:33;;;;;;;4.57;0.60;;;18.40;70.50;;;;;;5074245;28;20044;-70
2022/10/03 13:15:17;;;;;;;3.33;0.40;;;18.30;70.90;;;;;;5059723;28;20033;-70
2022/10/03 13:17:48;;;;;;;4.88;0.65;;;18.20;69.60;;;;;;5056782;28;20448;-70
2022/10/03 13:20:38;;;;;;;6.63;0.80;;;18.10;71.10;;;;;;5069105;28;20052;-69
2022/10/03 13:23:42;;;;;;;5.53;0.70;;;18.00;70.80;;;;;;5056408;28;20068;-69
2022/10/03 13:26:18;;;;;;;5.70;0.50;;;18.10;71.90;;;;;;5056318;28;20048;-69
2022/10/03 13:29:12;;;;;;;4.17;0.50;;;18.00;70.00;;;;;;5057661;28;20123;-71
2022/10/03 13:32:03;;;;;;;9.47;1.00;;;17.90;70.70;;;;;;5061835;28;20052;-71
2022/10/03 13:34:36;;;;;;;5.50;0.77;;;17.90;70.20;;;;;;5011922;28;20136;-72
2022/10/03 13:37:18;;;;;;;5.40;0.60;;;17.90;71.30;;;;;;5057996;28;20132;-72
2022/10/03 13:39:56;;;;;;;5.20;0.70;;;17.90;71.20;;;;;;5083123;28;20036;-72
2022/10/03 13:42:41;;;;;;;3.83;0.60;;;17.80;70.80;;;;;;5079916;28;20054;-72
2022/10/03 13:45:17;;;;;;;3.20;0.35;;;17.90;71.50;;;;;;5053126;28;20063;-72
2022/10/03 13:47:59;;;;;;;2.97;0.80;;;17.90;70.80;;;;;;5056934;28;20041;-72
2022/10/03 13:50:38;;;;;;;5.40;0.60;;;18.00;71.10;;;;;;5064119;28;20063;-72
2022/10/03 13:53:35;;;;;;;4.10;0.60;;;18.00;70.30;;;;;;5049041;28;20047;-72
2022/10/03 13:56:13;;;;;;;2.70;0.50;;;18.00;69.80;;;;;;5061649;28;20055;-72
2022/10/03 13:58:45;;;;;;;7.53;1.00;;;18.00;70.50;;;;;;5047373;28;20610;-72
2022/10/03 14:01:46;;;;;;;6.27;0.60;;;17.90;69.40;;;;;;5067734;28;20501;-72
2022/10/03 14:04:43;;;;;;;3.13;0.30;;;17.90;70.20;;;;;;5015689;28;20394;-72
2022/10/03 14:07:21;;;;;;;4.17;0.40;;;17.90;70.70;;;;;;5053623;28;20345;-72
2022/10/03 14:10:25;;;;;;;3.47;0.40;;;17.90;71.60;;;;;;5073096;28;20707;-72
2022/10/03 14:12:53;;;;;;;4.30;0.60;;;17.80;71.10;;;;;;5055775;28;20133;-72
2022/10/03 14:15:19;;;;;;;4.00;0.70;;;17.70;71.00;;;;;;5072635;28;20524;-72
2022/10/03 14:17:53;;;;;;;3.83;0.57;;;17.70;71.10;;;;;;5071554;28;20036;-72
2022/10/03 14:20:31;;;;;;;4.57;0.80;;;17.60;70.90;;;;;;5061639;28;20563;-72
2022/10/03 14:23:23;;;;;;;4.83;0.73;;;17.60;71.20;;;;;;5065848;28;20033;-69
2022/10/03 14:26:08;;;;;;;4.20;0.57;;;17.70;71.80;;;;;;5061620;28;20043;-69
2022/10/03 14:28:38;;;;;;;5.35;0.93;;;17.60;70.20;;;;;;5048089;28;20378;-69
2022/10/03 14:31:30;;;;;;;3.53;0.43;;;17.50;70.00;;;;;;5070717;28;20052;-69
2022/10/03 14:34:27;;;;;;;7.83;0.60;;;17.50;70.10;;;;;;5054241;28;20040;-69
2022/10/03 14:37:14;;;;;;;3.70;0.40;;;17.50;70.50;;;;;;5047606;28;20041;-69